createdAt,value
2023-04-09T00:00:44.561Z,835.00
2023-04-09T00:01:44.706Z,855.00
2023-04-09T00:02:44.799Z,811.00
2023-04-09T00:03:44.776Z,840.00
2023-04-09T00:04:44.812Z,820.00
2023-04-09T00:05:44.852Z,830.00
2023-04-09T00:06:44.911Z,858.00
2023-04-09T00:07:45.000Z,848.00
2023-04-09T00:08:45.073Z,860.00
2023-04-09T00:09:45.086Z,923.00
2023-04-09T00:10:45.165Z,948.00
2023-04-09T00:11:45.229Z,953.00
2023-04-09T00:12:45.246Z,990.00
2023-04-09T00:13:45.343Z,926.00
2023-04-09T00:14:45.408Z,922.00
2023-04-09T00:15:45.470Z,938.00
2023-04-09T00:16:45.553Z,915.00
2023-04-09T00:17:45.607Z,870.00
2023-04-09T00:18:45.614Z,879.00
2023-04-09T00:19:45.675Z,906.00
2023-04-09T00:20:45.707Z,913.00
2023-04-09T00:21:45.821Z,918.00
2023-04-09T00:22:45.893Z,932.00
2023-04-09T00:23:45.926Z,927.00
2023-04-09T00:24:45.965Z,958.00
2023-04-09T00:25:46.017Z,985.00
2023-04-09T00:26:46.089Z,999.00
2023-04-09T00:27:46.150Z,980.00
2023-04-09T00:28:46.235Z,977.00
2023-04-09T00:29:46.324Z,982.00
2023-04-09T00:30:46.329Z,961.00
2023-04-09T00:31:46.489Z,978.00
2023-04-09T00:32:46.610Z,962.00
2023-04-09T00:33:46.534Z,999.00
2023-04-09T00:34:46.594Z,1046.00
2023-04-09T00:35:46.715Z,1027.00
2023-04-09T00:36:46.736Z,982.00
2023-04-09T00:37:46.763Z,992.00
2023-04-09T00:38:46.844Z,1003.00
2023-04-09T00:39:46.920Z,999.00
2023-04-09T00:40:46.942Z,1006.00
2023-04-09T00:41:47.034Z,1021.00
2023-04-09T00:42:47.086Z,1047.00
2023-04-09T00:43:47.180Z,1062.00
2023-04-09T00:44:47.247Z,1058.00
2023-04-09T00:45:47.324Z,1047.00
2023-04-09T00:46:47.342Z,1067.00
2023-04-09T00:47:47.476Z,1072.00
2023-04-09T00:48:47.517Z,1006.00
2023-04-09T00:49:47.539Z,1035.00
2023-04-09T00:50:47.601Z,1057.00
2023-04-09T00:51:47.648Z,1054.00
2023-04-09T00:52:47.713Z,1021.00
2023-04-09T00:53:47.762Z,1041.00
2023-04-09T00:54:47.848Z,1039.00
2023-04-09T00:55:47.960Z,1052.00
2023-04-09T00:56:47.957Z,1070.00
2023-04-09T00:57:47.972Z,1116.00
2023-04-09T00:58:48.053Z,1111.00
2023-04-09T00:59:48.116Z,1093.00
2023-04-09T01:00:48.228Z,1073.00
2023-04-09T01:01:48.248Z,1086.00
2023-04-09T01:02:48.376Z,1084.00
2023-04-09T01:03:48.394Z,1043.00
2023-04-09T01:04:48.397Z,1056.00
2023-04-09T01:05:48.469Z,1048.00
2023-04-09T01:06:48.485Z,1034.00
2023-04-09T01:07:48.548Z,1067.00
2023-04-09T01:08:48.631Z,1070.00
2023-04-09T01:09:48.693Z,1058.00
2023-04-09T01:10:48.758Z,1093.00
2023-04-09T01:11:48.787Z,1125.00
2023-04-09T01:12:48.834Z,1153.00
2023-04-09T01:13:48.921Z,1192.00
2023-04-09T01:14:48.958Z,1195.00
2023-04-09T01:15:49.020Z,1104.00
2023-04-09T01:16:49.133Z,1100.00
2023-04-09T01:17:49.181Z,1064.00
2023-04-09T01:18:49.274Z,1070.00
2023-04-09T01:19:49.261Z,1071.00
2023-04-09T01:20:49.326Z,1065.00
2023-04-09T01:21:49.363Z,1037.00
2023-04-09T01:22:49.425Z,1061.00
2023-04-09T01:23:49.550Z,1020.00
2023-04-09T01:24:49.568Z,1019.00
2023-04-09T01:25:49.636Z,1048.00
2023-04-09T01:26:49.682Z,1028.00
2023-04-09T01:27:49.774Z,1049.00
2023-04-09T01:28:50.021Z,1048.00
2023-04-09T01:29:49.891Z,1056.00
2023-04-09T01:30:50.014Z,1023.00
2023-04-09T01:31:50.037Z,1044.00
2023-04-09T01:32:50.076Z,1060.00
2023-04-09T01:33:50.124Z,1058.00
2023-04-09T01:34:50.196Z,1069.00
2023-04-09T01:35:50.229Z,1090.00
2023-04-09T01:36:50.258Z,1089.00
2023-04-09T01:37:50.321Z,1105.00
2023-04-09T01:38:50.619Z,1127.00
2023-04-09T01:39:50.434Z,1131.00
2023-04-09T01:40:50.508Z,1104.00
2023-04-09T01:41:50.604Z,1088.00
2023-04-09T01:42:50.667Z,1099.00
2023-04-09T01:43:50.675Z,1081.00
2023-04-09T01:44:50.717Z,1085.00
2023-04-09T01:45:50.825Z,1079.00
2023-04-09T01:46:50.848Z,1022.00
2023-04-09T01:47:50.948Z,1028.00
2023-04-09T01:48:51.083Z,1024.00
2023-04-09T01:49:50.986Z,1083.00
2023-04-09T01:50:51.066Z,1094.00
2023-04-09T01:51:51.127Z,1039.00
2023-04-09T01:52:51.164Z,1040.00
2023-04-09T01:53:51.248Z,1044.00
2023-04-09T01:54:51.287Z,1075.00
2023-04-09T01:55:51.342Z,1033.00
2023-04-09T01:56:51.386Z,1015.00
2023-04-09T01:57:51.462Z,1006.00
2023-04-09T01:58:51.724Z,1030.00
2023-04-09T01:59:51.530Z,1120.00
2023-04-09T02:00:51.566Z,1168.00
2023-04-09T02:01:51.665Z,1156.00
2023-04-09T02:02:51.823Z,1111.00
2023-04-09T02:03:51.850Z,1034.00
2023-04-09T02:04:51.829Z,1048.00
2023-04-09T02:05:51.853Z,1000.00
2023-04-09T02:06:51.924Z,1001.00
2023-04-09T02:07:51.994Z,1070.00
2023-04-09T02:08:52.184Z,1117.00
2023-04-09T02:09:52.114Z,1141.00
2023-04-09T02:10:52.181Z,1121.00
2023-04-09T02:11:52.223Z,1123.00
2023-04-09T02:12:52.295Z,1095.00
2023-04-09T02:13:52.316Z,1104.00
2023-04-09T02:14:52.414Z,1072.00
2023-04-09T02:15:52.455Z,1108.00
2023-04-09T02:16:52.473Z,1173.00
2023-04-09T02:17:52.596Z,1183.00
2023-04-09T02:18:52.795Z,1103.00
2023-04-09T02:19:52.690Z,1072.00
2023-04-09T02:20:52.765Z,1054.00
2023-04-09T02:21:52.798Z,1024.00
2023-04-09T02:22:52.848Z,994.00
2023-04-09T02:23:53.009Z,1026.00
2023-04-09T02:24:53.006Z,976.00
2023-04-09T02:25:53.035Z,983.00
2023-04-09T02:26:53.077Z,1045.00
2023-04-09T02:27:53.164Z,1041.00
2023-04-09T02:28:53.469Z,1041.00
2023-04-09T02:29:53.238Z,1038.00
2023-04-09T02:30:53.308Z,989.00
2023-04-09T02:31:53.380Z,980.00
2023-04-09T02:32:53.470Z,990.00
2023-04-09T02:33:53.498Z,979.00
2023-04-09T02:34:53.537Z,954.00
2023-04-09T02:35:53.649Z,976.00
2023-04-09T02:36:53.648Z,970.00
2023-04-09T02:37:53.732Z,985.00
2023-04-09T02:38:53.962Z,996.00
2023-04-09T02:39:53.845Z,1108.00
2023-04-09T02:40:53.894Z,1019.00
2023-04-09T02:41:53.980Z,1010.00
2023-04-09T02:42:54.043Z,1003.00
2023-04-09T02:43:54.094Z,957.00
2023-04-09T02:44:54.133Z,997.00
2023-04-09T02:45:54.224Z,1025.00
2023-04-09T02:46:54.242Z,1013.00
2023-04-09T02:47:54.402Z,1003.00
2023-04-09T02:48:54.515Z,1024.00
2023-04-09T02:49:54.460Z,997.00
2023-04-09T02:50:54.497Z,1009.00
2023-04-09T02:51:54.591Z,969.00
2023-04-09T02:52:54.612Z,971.00
2023-04-09T02:53:54.711Z,997.00
2023-04-09T02:54:54.762Z,950.00
2023-04-09T02:55:54.837Z,941.00
2023-04-09T02:56:54.849Z,971.00
2023-04-09T02:57:54.953Z,912.00
2023-04-09T02:58:55.007Z,929.00
2023-04-09T02:59:55.009Z,928.00
2023-04-09T03:00:55.101Z,1017.00
2023-04-09T03:01:55.190Z,1074.00
2023-04-09T03:02:55.425Z,1090.00
2023-04-09T03:03:55.468Z,983.00
2023-04-09T03:04:55.323Z,975.00
2023-04-09T03:05:55.398Z,1022.00
2023-04-09T03:06:55.435Z,966.00
2023-04-09T03:07:55.494Z,940.00
2023-04-09T03:08:55.552Z,1029.00
2023-04-09T03:09:55.628Z,982.00
2023-04-09T03:10:55.669Z,966.00
2023-04-09T03:11:55.713Z,936.00
2023-04-09T03:12:55.783Z,920.00
2023-04-09T03:13:55.884Z,887.00
2023-04-09T03:14:55.897Z,834.00
2023-04-09T03:15:55.993Z,855.00
2023-04-09T03:16:56.000Z,866.00
2023-04-09T03:17:56.141Z,874.00
2023-04-09T03:18:56.130Z,882.00
2023-04-09T03:19:56.173Z,911.00
2023-04-09T03:20:56.180Z,941.00
2023-04-09T03:21:56.266Z,900.00
2023-04-09T03:22:56.289Z,893.00
2023-04-09T03:23:56.374Z,867.00
2023-04-09T03:24:56.419Z,866.00
2023-04-09T03:25:56.446Z,868.00
2023-04-09T03:26:56.491Z,873.00
2023-04-09T03:27:56.596Z,861.00
2023-04-09T03:28:56.601Z,861.00
2023-04-09T03:29:56.687Z,856.00
2023-04-09T03:30:56.734Z,846.00
2023-04-09T03:31:56.787Z,854.00
2023-04-09T03:32:56.868Z,828.00
2023-04-09T03:33:56.905Z,821.00
2023-04-09T03:34:56.948Z,847.00
2023-04-09T03:35:57.092Z,844.00
2023-04-09T03:36:57.034Z,879.00
2023-04-09T03:37:57.160Z,946.00
2023-04-09T03:38:57.158Z,988.00
2023-04-09T03:39:57.226Z,906.00
2023-04-09T03:40:57.278Z,856.00
2023-04-09T03:41:57.320Z,873.00
2023-04-09T03:42:57.388Z,900.00
2023-04-09T03:43:57.449Z,946.00
2023-04-09T03:44:57.488Z,899.00
2023-04-09T03:45:57.539Z,907.00
2023-04-09T03:46:57.657Z,901.00
2023-04-09T03:47:58.018Z,891.00
2023-04-09T03:48:57.728Z,920.00
2023-04-09T03:49:57.728Z,911.00
2023-04-09T03:50:57.798Z,893.00
2023-04-09T03:51:57.868Z,936.00
2023-04-09T03:52:57.900Z,937.00
2023-04-09T03:53:57.965Z,996.00
2023-04-09T03:54:57.998Z,978.00
2023-04-09T03:55:58.073Z,955.00
2023-04-09T03:56:58.093Z,922.00
2023-04-09T03:57:58.166Z,908.00
2023-04-09T03:58:58.242Z,898.00
2023-04-09T03:59:58.278Z,916.00
2023-04-09T04:00:58.309Z,960.00
2023-04-09T04:01:58.429Z,945.00
2023-04-09T04:02:58.601Z,923.00
2023-04-09T04:03:58.550Z,986.00
2023-04-09T04:04:58.539Z,1010.00
2023-04-09T04:05:58.577Z,1013.00
2023-04-09T04:06:58.636Z,1004.00
2023-04-09T04:07:58.703Z,1001.00
2023-04-09T04:08:58.752Z,973.00
2023-04-09T04:09:58.811Z,998.00
2023-04-09T04:10:58.856Z,984.00
2023-04-09T04:11:58.971Z,1011.00
2023-04-09T04:12:58.982Z,1040.00
2023-04-09T04:13:59.461Z,1090.00
2023-04-09T04:14:59.044Z,1064.00
2023-04-09T04:15:59.130Z,1109.00
2023-04-09T04:16:59.160Z,1134.00
2023-04-09T04:17:59.277Z,1115.00
2023-04-09T04:18:59.285Z,1099.00
2023-04-09T04:19:59.328Z,1037.00
2023-04-09T04:20:59.363Z,1060.00
2023-04-09T04:21:59.435Z,1028.00
2023-04-09T04:22:59.511Z,940.00
2023-04-09T04:23:59.567Z,972.00
2023-04-09T04:24:59.620Z,1014.00
2023-04-09T04:25:59.661Z,1040.00
2023-04-09T04:26:59.739Z,1009.00
2023-04-09T04:27:59.804Z,984.00
2023-04-09T04:28:59.828Z,943.00
2023-04-09T04:29:59.888Z,960.00
2023-04-09T04:30:59.954Z,952.00
2023-04-09T04:32:00.059Z,922.00
2023-04-09T04:33:00.060Z,855.00
2023-04-09T04:34:00.080Z,860.00
2023-04-09T04:35:00.143Z,816.00
2023-04-09T04:36:00.280Z,820.00
2023-04-09T04:37:00.232Z,894.00
2023-04-09T04:38:00.277Z,963.00
2023-04-09T04:39:00.337Z,961.00
2023-04-09T04:40:00.450Z,930.00
2023-04-09T04:41:00.480Z,887.00
2023-04-09T04:42:00.515Z,928.00
2023-04-09T04:43:00.587Z,884.00
2023-04-09T04:44:00.616Z,848.00
2023-04-09T04:45:00.689Z,837.00
2023-04-09T04:46:00.802Z,814.00
2023-04-09T04:47:00.826Z,828.00
2023-04-09T04:48:00.895Z,803.00
2023-04-09T04:49:00.857Z,802.00
2023-04-09T04:50:00.934Z,822.00
2023-04-09T04:51:00.939Z,868.00
2023-04-09T04:52:01.030Z,896.00
2023-04-09T04:53:01.084Z,888.00
2023-04-09T04:54:01.167Z,866.00
2023-04-09T04:55:01.209Z,832.00
2023-04-09T04:56:01.241Z,845.00
2023-04-09T04:57:01.287Z,818.00
2023-04-09T04:58:01.316Z,841.00
2023-04-09T04:59:01.400Z,830.00
2023-04-09T05:00:01.406Z,871.00
2023-04-09T05:01:01.562Z,900.00
2023-04-09T05:02:01.595Z,930.00
2023-04-09T05:03:01.705Z,923.00
2023-04-09T05:04:01.684Z,923.00
2023-04-09T05:05:01.687Z,967.00
2023-04-09T05:06:01.724Z,941.00
2023-04-09T05:07:01.776Z,972.00
2023-04-09T05:08:01.869Z,991.00
2023-04-09T05:09:01.888Z,969.00
2023-04-09T05:10:01.942Z,944.00
2023-04-09T05:11:01.989Z,957.00
2023-04-09T05:12:02.071Z,953.00
2023-04-09T05:13:02.150Z,973.00
2023-04-09T05:14:02.122Z,1005.00
2023-04-09T05:15:02.225Z,1019.00
2023-04-09T05:16:02.257Z,992.00
2023-04-09T05:17:02.385Z,977.00
2023-04-09T05:18:02.309Z,943.00
2023-04-09T05:19:02.377Z,886.00
2023-04-09T05:20:02.449Z,924.00
2023-04-09T05:21:02.469Z,904.00
2023-04-09T05:22:02.518Z,914.00
2023-04-09T05:23:02.580Z,913.00
2023-04-09T05:24:02.668Z,950.00
2023-04-09T05:25:02.758Z,956.00
2023-04-09T05:26:02.776Z,967.00
2023-04-09T05:27:02.830Z,951.00
2023-04-09T05:28:02.900Z,947.00
2023-04-09T05:29:02.969Z,990.00
2023-04-09T05:30:03.024Z,958.00
2023-04-09T05:31:03.079Z,941.00
2023-04-09T05:32:03.129Z,927.00
2023-04-09T05:33:03.192Z,934.00
2023-04-09T05:34:03.281Z,936.00
2023-04-09T05:35:03.287Z,948.00
2023-04-09T05:36:03.338Z,951.00
2023-04-09T05:37:03.394Z,947.00
2023-04-09T05:38:03.492Z,962.00
2023-04-09T05:39:03.516Z,924.00
2023-04-09T05:40:03.563Z,948.00
2023-04-09T05:41:03.617Z,919.00
2023-04-09T05:42:03.695Z,924.00
2023-04-09T05:43:03.761Z,932.00
2023-04-09T05:44:03.790Z,946.00
2023-04-09T05:45:03.852Z,955.00
2023-04-09T05:46:03.962Z,959.00
2023-04-09T05:47:04.001Z,993.00
2023-04-09T05:48:04.190Z,981.00
2023-04-09T05:49:04.102Z,957.00
2023-04-09T05:50:04.150Z,930.00
2023-04-09T05:51:04.227Z,909.00
2023-04-09T05:52:04.269Z,908.00
2023-04-09T05:53:04.335Z,879.00
2023-04-09T05:54:04.391Z,928.00
2023-04-09T05:55:04.446Z,902.00
2023-04-09T05:56:04.490Z,918.00
2023-04-09T05:57:04.561Z,922.00
2023-04-09T05:58:04.623Z,913.00
2023-04-09T05:59:04.653Z,948.00
2023-04-09T06:00:04.698Z,929.00
2023-04-09T06:01:04.759Z,926.00
2023-04-09T06:02:04.985Z,886.00
2023-04-09T06:03:04.994Z,876.00
2023-04-09T06:04:05.426Z,886.00
2023-04-09T06:05:04.993Z,876.00
2023-04-09T06:06:05.057Z,877.00
2023-04-09T06:07:05.145Z,873.00
2023-04-09T06:08:05.203Z,876.00
2023-04-09T06:09:05.248Z,882.00
2023-04-09T06:10:05.325Z,879.00
2023-04-09T06:11:05.392Z,870.00
2023-04-09T06:12:05.437Z,852.00
2023-04-09T06:13:05.524Z,843.00
2023-04-09T06:14:05.609Z,880.00
2023-04-09T06:15:05.641Z,904.00
2023-04-09T06:16:05.742Z,887.00
2023-04-09T06:17:05.781Z,893.00
2023-04-09T06:18:05.876Z,872.00
2023-04-09T06:19:05.913Z,860.00
2023-04-09T06:20:06.028Z,868.00
2023-04-09T06:21:06.065Z,891.00
2023-04-09T06:22:06.108Z,916.00
2023-04-09T06:23:06.162Z,919.00
2023-04-09T06:24:06.231Z,933.00
2023-04-09T06:25:06.348Z,887.00
2023-04-09T06:26:06.365Z,888.00
2023-04-09T06:27:06.579Z,884.00
2023-04-09T06:28:06.509Z,881.00
2023-04-09T06:29:06.576Z,879.00
2023-04-09T06:30:06.621Z,901.00
2023-04-09T06:31:06.693Z,904.00
2023-04-09T06:32:06.844Z,870.00
2023-04-09T06:33:06.799Z,833.00
2023-04-09T06:34:06.908Z,855.00
2023-04-09T06:35:07.645Z,845.00
2023-04-09T06:36:07.124Z,835.00
2023-04-09T06:37:07.065Z,855.00
2023-04-09T06:38:07.118Z,836.00
2023-04-09T06:39:07.204Z,846.00
2023-04-09T06:40:07.299Z,856.00
2023-04-09T06:41:07.319Z,814.00
2023-04-09T06:42:07.404Z,831.00
2023-04-09T06:43:07.465Z,859.00
2023-04-09T06:44:07.542Z,872.00
2023-04-09T06:45:07.925Z,867.00
2023-04-09T06:46:07.653Z,876.00
2023-04-09T06:47:07.704Z,885.00
2023-04-09T06:48:08.601Z,868.00
2023-04-09T06:49:07.846Z,830.00
2023-04-09T06:50:07.881Z,851.00
2023-04-09T06:51:07.929Z,859.00
2023-04-09T06:52:08.040Z,850.00
2023-04-09T06:53:08.048Z,853.00
2023-04-09T06:54:08.127Z,889.00
2023-04-09T06:55:08.157Z,894.00
2023-04-09T06:56:08.209Z,903.00
2023-04-09T06:57:08.440Z,861.00
2023-04-09T06:58:08.338Z,870.00
2023-04-09T06:59:08.540Z,848.00
2023-04-09T07:00:08.438Z,855.00
2023-04-09T07:01:08.479Z,886.00
2023-04-09T07:02:08.602Z,803.00
2023-04-09T07:03:08.696Z,805.00
2023-04-09T07:04:08.743Z,827.00
2023-04-09T07:05:08.754Z,812.00
2023-04-09T07:06:08.798Z,833.00
2023-04-09T07:07:08.857Z,811.00
2023-04-09T07:08:08.915Z,850.00
2023-04-09T07:09:08.979Z,860.00
2023-04-09T07:10:09.031Z,813.00
2023-04-09T07:11:09.105Z,835.00
2023-04-09T07:12:09.165Z,848.00
2023-04-09T07:13:09.282Z,867.00
2023-04-09T07:14:09.310Z,832.00
2023-04-09T07:15:09.332Z,877.00
2023-04-09T07:16:09.474Z,897.00
2023-04-09T07:17:09.423Z,847.00
2023-04-09T07:18:09.675Z,839.00
2023-04-09T07:19:09.568Z,821.00
2023-04-09T07:20:09.612Z,814.00
2023-04-09T07:21:09.669Z,851.00
2023-04-09T07:22:09.720Z,848.00
2023-04-09T07:23:09.762Z,825.00
2023-04-09T07:24:09.808Z,850.00
2023-04-09T07:25:09.879Z,853.00
2023-04-09T07:26:09.933Z,853.00
2023-04-09T07:27:09.977Z,865.00
2023-04-09T07:28:10.071Z,880.00
2023-04-09T07:29:10.093Z,849.00
2023-04-09T07:30:10.193Z,833.00
2023-04-09T07:31:10.239Z,802.00
2023-04-09T07:32:10.269Z,814.00
2023-04-09T07:33:10.413Z,812.00
2023-04-09T07:34:10.400Z,858.00
2023-04-09T07:35:10.398Z,867.00
2023-04-09T07:36:10.503Z,861.00
2023-04-09T07:37:10.514Z,858.00
2023-04-09T07:38:10.594Z,889.00
2023-04-09T07:39:10.628Z,901.00
2023-04-09T07:40:10.725Z,907.00
2023-04-09T07:41:10.802Z,904.00
2023-04-09T07:42:10.807Z,887.00
2023-04-09T07:43:10.849Z,907.00
2023-04-09T07:44:10.960Z,903.00
2023-04-09T07:45:11.029Z,878.00
2023-04-09T07:46:11.066Z,885.00
2023-04-09T07:47:11.117Z,892.00
2023-04-09T07:48:11.152Z,896.00
2023-04-09T07:49:11.240Z,884.00
2023-04-09T07:50:11.287Z,908.00
2023-04-09T07:51:11.311Z,849.00
2023-04-09T07:52:11.399Z,847.00
2023-04-09T07:53:11.430Z,895.00
2023-04-09T07:54:11.489Z,879.00
2023-04-09T07:55:11.559Z,883.00
2023-04-09T07:56:11.597Z,882.00
2023-04-09T07:57:11.701Z,889.00
2023-04-09T07:58:11.708Z,858.00
2023-04-09T07:59:11.765Z,845.00
2023-04-09T08:00:11.799Z,868.00
2023-04-09T08:01:11.867Z,876.00
2023-04-09T08:02:14.342Z,863.00
2023-04-09T08:03:12.086Z,830.00
2023-04-09T08:04:12.047Z,807.00
2023-04-09T08:05:12.036Z,813.00
2023-04-09T08:06:11.933Z,809.00
2023-04-09T08:07:11.878Z,798.00
2023-04-09T08:08:11.872Z,829.00
2023-04-09T08:09:11.927Z,811.00
2023-04-09T08:10:11.859Z,825.00
2023-04-09T08:11:11.869Z,828.00
2023-04-09T08:12:11.893Z,788.00
2023-04-09T08:13:12.098Z,842.00
2023-04-09T08:14:11.858Z,836.00
2023-04-09T08:15:11.875Z,807.00
2023-04-09T08:16:11.980Z,772.00
2023-04-09T08:17:11.869Z,768.00
2023-04-09T08:18:11.881Z,728.00
2023-04-09T08:19:11.872Z,723.00
2023-04-09T08:20:11.876Z,758.00
2023-04-09T08:21:11.844Z,722.00
2023-04-09T08:22:11.875Z,699.00
2023-04-09T08:23:11.854Z,726.00
2023-04-09T08:24:11.976Z,747.00
2023-04-09T08:25:11.857Z,745.00
2023-04-09T08:26:11.841Z,731.00
2023-04-09T08:27:11.874Z,737.00
2023-04-09T08:28:11.863Z,710.00
2023-04-09T08:29:11.848Z,731.00
2023-04-09T08:30:11.837Z,701.00
2023-04-09T08:31:11.845Z,707.00
2023-04-09T08:32:11.944Z,715.00
2023-04-09T08:33:11.854Z,704.00
2023-04-09T08:34:11.825Z,701.00
2023-04-09T08:35:11.839Z,665.00
2023-04-09T08:36:11.874Z,656.00
2023-04-09T08:37:11.799Z,635.00
2023-04-09T08:38:11.821Z,627.00
2023-04-09T08:39:11.860Z,643.00
2023-04-09T08:40:11.816Z,628.00
2023-04-09T08:41:12.997Z,619.00
2023-04-09T08:42:11.783Z,628.00
2023-04-09T08:43:11.829Z,626.00
2023-04-09T08:44:11.861Z,612.00
2023-04-09T08:45:11.922Z,581.00
2023-04-09T08:46:11.992Z,580.00
2023-04-09T08:47:12.038Z,575.00
2023-04-09T08:48:12.095Z,573.00
2023-04-09T08:49:12.109Z,582.00
2023-04-09T08:50:12.118Z,575.00
2023-04-09T08:51:12.159Z,554.00
2023-04-09T08:52:12.225Z,560.00
2023-04-09T08:53:12.269Z,561.00
2023-04-09T08:54:12.308Z,569.00
2023-04-09T08:55:12.602Z,557.00
2023-04-09T08:56:12.354Z,548.00
2023-04-09T08:57:12.406Z,557.00
2023-04-09T08:58:12.488Z,560.00
2023-04-09T08:59:12.510Z,552.00
2023-04-09T09:00:12.565Z,562.00
2023-04-09T09:01:13.649Z,552.00
2023-04-09T09:02:12.772Z,554.00
2023-04-09T09:03:12.714Z,557.00
2023-04-09T09:04:12.744Z,554.00
2023-04-09T09:05:12.754Z,544.00
2023-04-09T09:06:12.781Z,568.00
2023-04-09T09:07:12.834Z,568.00
2023-04-09T09:08:12.849Z,566.00
2023-04-09T09:09:12.915Z,591.00
2023-04-09T09:10:12.934Z,592.00
2023-04-09T09:11:12.977Z,568.00
2023-04-09T09:12:12.994Z,558.00
2023-04-09T09:13:13.056Z,568.00
2023-04-09T09:14:13.101Z,564.00
2023-04-09T09:15:13.122Z,552.00
2023-04-09T09:16:13.211Z,544.00
2023-04-09T09:17:13.229Z,542.00
2023-04-09T09:18:13.226Z,536.00
2023-04-09T09:19:13.242Z,538.00
2023-04-09T09:20:13.298Z,550.00
2023-04-09T09:21:13.302Z,563.00
2023-04-09T09:22:13.377Z,551.00
2023-04-09T09:23:13.401Z,547.00
2023-04-09T09:24:13.404Z,555.00
2023-04-09T09:25:13.449Z,517.00
2023-04-09T09:26:13.468Z,502.00
2023-04-09T09:27:13.486Z,514.00
2023-04-09T09:28:13.524Z,517.00
2023-04-09T09:29:13.554Z,500.00
2023-04-09T09:30:13.609Z,504.00
2023-04-09T09:31:13.677Z,503.00
2023-04-09T09:32:13.738Z,523.00
2023-04-09T09:33:13.682Z,529.00
2023-04-09T09:34:13.684Z,526.00
2023-04-09T09:35:13.706Z,520.00
2023-04-09T09:36:13.754Z,516.00
2023-04-09T09:37:13.776Z,536.00
2023-04-09T09:38:13.800Z,544.00
2023-04-09T09:39:13.826Z,566.00
2023-04-09T09:40:13.855Z,595.00
2023-04-09T09:41:13.872Z,621.00
2023-04-09T09:42:13.900Z,603.00
2023-04-09T09:43:14.703Z,608.00
2023-04-09T09:44:13.945Z,584.00
2023-04-09T09:45:14.001Z,582.00
2023-04-09T09:46:14.082Z,584.00
2023-04-09T09:47:14.009Z,596.00
2023-04-09T09:48:14.072Z,613.00
2023-04-09T09:49:14.072Z,633.00
2023-04-09T09:50:14.110Z,657.00
2023-04-09T09:51:14.082Z,669.00
2023-04-09T09:52:14.132Z,656.00
2023-04-09T09:53:14.122Z,661.00
2023-04-09T09:54:14.132Z,658.00
2023-04-09T09:55:14.152Z,668.00
2023-04-09T09:56:14.143Z,680.00
2023-04-09T09:57:14.201Z,658.00
2023-04-09T09:58:14.181Z,674.00
2023-04-09T09:59:14.219Z,652.00
2023-04-09T10:00:14.235Z,745.00
2023-04-09T10:01:14.252Z,787.00
2023-04-09T10:02:14.319Z,817.00
2023-04-09T10:03:14.285Z,839.00
2023-04-09T10:04:14.287Z,852.00
2023-04-09T10:05:14.302Z,835.00
2023-04-09T10:06:14.273Z,842.00
2023-04-09T10:07:14.300Z,850.00
2023-04-09T10:08:14.265Z,840.00
2023-04-09T10:09:14.306Z,836.00
2023-04-09T10:10:14.301Z,846.00
2023-04-09T10:11:14.276Z,838.00
2023-04-09T10:12:14.299Z,848.00
2023-04-09T10:13:14.297Z,860.00
2023-04-09T10:14:14.344Z,876.00
2023-04-09T10:15:14.313Z,857.00
2023-04-09T10:16:14.416Z,859.00
2023-04-09T10:17:14.320Z,879.00
2023-04-09T10:18:14.351Z,894.00
2023-04-09T10:19:14.381Z,900.00
2023-04-09T10:20:14.363Z,891.00
2023-04-09T10:21:14.332Z,846.00
2023-04-09T10:22:14.351Z,870.00
2023-04-09T10:23:14.343Z,889.00
2023-04-09T10:24:14.394Z,893.00
2023-04-09T10:25:14.385Z,887.00
2023-04-09T10:26:14.409Z,896.00
2023-04-09T10:27:16.201Z,875.00
2023-04-09T10:28:14.491Z,890.00
2023-04-09T10:29:14.590Z,911.00
2023-04-09T10:30:14.532Z,887.00
2023-04-09T10:31:14.518Z,893.00
2023-04-09T10:32:14.462Z,887.00
2023-04-09T10:33:14.496Z,868.00
2023-04-09T10:34:14.487Z,884.00
2023-04-09T10:35:14.497Z,853.00
2023-04-09T10:36:14.570Z,863.00
2023-04-09T10:37:14.542Z,866.00
2023-04-09T10:38:14.542Z,867.00
2023-04-09T10:39:14.542Z,869.00
2023-04-09T10:40:14.602Z,853.00
2023-04-09T10:41:14.538Z,852.00
2023-04-09T10:42:14.570Z,844.00
2023-04-09T10:43:14.553Z,859.00
2023-04-09T10:44:14.529Z,878.00
2023-04-09T10:45:14.695Z,871.00
2023-04-09T10:46:14.562Z,832.00
2023-04-09T10:47:14.541Z,847.00
2023-04-09T10:48:14.559Z,826.00
2023-04-09T10:49:14.559Z,833.00
2023-04-09T10:50:14.599Z,800.00
2023-04-09T10:51:14.594Z,814.00
2023-04-09T10:52:14.581Z,842.00
2023-04-09T10:53:14.570Z,846.00
2023-04-09T10:54:14.559Z,860.00
2023-04-09T10:55:14.608Z,862.00
2023-04-09T10:56:14.584Z,862.00
2023-04-09T10:57:14.585Z,846.00
2023-04-09T10:58:14.579Z,876.00
2023-04-09T10:59:14.569Z,854.00
2023-04-09T11:00:14.625Z,856.00
2023-04-09T11:01:14.611Z,841.00
2023-04-09T11:02:14.667Z,850.00
2023-04-09T11:03:14.678Z,848.00
2023-04-09T11:04:14.606Z,860.00
2023-04-09T11:05:14.625Z,854.00
2023-04-09T11:06:14.633Z,866.00
2023-04-09T11:07:14.638Z,867.00
2023-04-09T11:08:14.660Z,847.00
2023-04-09T11:09:14.656Z,858.00
2023-04-09T11:10:14.661Z,856.00
2023-04-09T11:11:14.680Z,832.00
2023-04-09T11:12:14.658Z,798.00
2023-04-09T11:13:14.649Z,760.00
2023-04-09T11:14:14.650Z,761.00
2023-04-09T11:15:14.683Z,802.00
2023-04-09T11:16:24.098Z,799.00
2023-04-09T11:17:15.656Z,801.00
2023-04-09T11:18:14.628Z,806.00
2023-04-09T11:19:14.614Z,810.00
2023-04-09T11:20:14.646Z,814.00
2023-04-09T11:21:14.618Z,722.00
2023-04-09T11:22:14.616Z,758.00
2023-04-09T11:23:14.640Z,757.00
2023-04-09T11:24:14.600Z,761.00
2023-04-09T11:25:14.589Z,778.00
2023-04-09T11:26:14.592Z,782.00
2023-04-09T11:27:14.572Z,788.00
2023-04-09T11:28:14.589Z,770.00
2023-04-09T11:29:14.568Z,801.00
2023-04-09T11:30:14.577Z,765.00
2023-04-09T11:31:14.642Z,778.00
2023-04-09T11:32:14.564Z,797.00
2023-04-09T11:33:15.181Z,786.00
2023-04-09T11:34:14.555Z,793.00
2023-04-09T11:35:14.557Z,777.00
2023-04-09T11:36:14.595Z,795.00
2023-04-09T11:37:14.529Z,807.00
2023-04-09T11:38:14.563Z,805.00
2023-04-09T11:39:14.567Z,817.00
2023-04-09T11:40:14.745Z,812.00
2023-04-09T11:41:14.526Z,824.00
2023-04-09T11:42:14.534Z,814.00
2023-04-09T11:43:14.505Z,802.00
2023-04-09T11:44:14.521Z,821.00
2023-04-09T11:45:14.512Z,806.00
2023-04-09T11:46:14.551Z,782.00
2023-04-09T11:47:14.502Z,783.00
2023-04-09T11:48:14.512Z,785.00
2023-04-09T11:49:14.498Z,774.00
2023-04-09T11:50:14.552Z,749.00
2023-04-09T11:51:14.471Z,772.00
2023-04-09T11:52:14.481Z,770.00
2023-04-09T11:53:14.493Z,787.00
2023-04-09T11:54:14.490Z,775.00
2023-04-09T11:55:14.477Z,774.00
2023-04-09T11:56:14.462Z,780.00
2023-04-09T11:57:14.474Z,775.00
2023-04-09T11:58:14.477Z,759.00
2023-04-09T11:59:14.458Z,741.00
2023-04-09T12:00:14.477Z,738.00
2023-04-09T12:01:14.438Z,738.00
2023-04-09T12:02:14.500Z,755.00
2023-04-09T12:03:14.546Z,730.00
2023-04-09T12:04:14.653Z,717.00
2023-04-09T12:05:14.537Z,732.00
2023-04-09T12:06:14.436Z,727.00
2023-04-09T12:07:14.449Z,733.00
2023-04-09T12:08:14.410Z,727.00
2023-04-09T12:09:14.423Z,724.00
2023-04-09T12:10:14.415Z,764.00
2023-04-09T12:11:14.390Z,752.00
2023-04-09T12:12:14.412Z,752.00
2023-04-09T12:13:14.398Z,747.00
2023-04-09T12:14:14.376Z,742.00
2023-04-09T12:15:14.382Z,762.00
2023-04-09T12:16:14.495Z,762.00
2023-04-09T12:17:14.419Z,745.00
2023-04-09T12:18:14.406Z,737.00
2023-04-09T12:19:14.423Z,735.00
2023-04-09T12:20:14.437Z,740.00
2023-04-09T12:21:14.436Z,733.00
2023-04-09T12:22:14.472Z,741.00
2023-04-09T12:23:14.465Z,731.00
2023-04-09T12:24:14.499Z,735.00
2023-04-09T12:25:14.554Z,729.00